^^
Station Historical Data
 
Daily Summary for January 27, 2015 Units:  English    Metric   Both
« Previous Day
Next Day »
Daily Weekly Monthly Yearly Custom
  Current: High: Low: Average:
Temperature: 32.8 °F 32.8 °F 25.2 °F 27.3 °F
Dew Point: 22.0 °F 23.8 °F 20.9 °F 22.7 °F
Humidity: 64% 94% 64% 83%
Wind Speed: 6.9mph 13.8mph 1.0mph 5.7mph
Wind Gust: 6.9mph 13.8mph - -
WindNW - - WNW
Pressure: 29.77 in 29.80 in 29.73 in -
Precipitation: 0.09 in      
Historical Graphs
 
 
Tabular Data for January 27, 2015
Time Temperature Dew Point Pressure Wind Wind Speed Wind Gust Humidity Rainfall Rate (Hourly)
00:03 25.2 °F 23.7 °F 29.74 in NNW 3.5 mph 3.5 mph 94% 0.00 in
00:08 25.2 °F 23.5 °F 29.74 in NW 3.5 mph 3.5 mph 93% 0.00 in
00:13 25.2 °F 23.5 °F 29.74 in NNE 2.3 mph 2.3 mph 93% 0.00 in
00:18 25.2 °F 23.5 °F 29.74 in NNW 2.3 mph   93% 0.00 in
00:23 25.3 °F 23.6 °F 29.74 in North 5.8 mph 5.8 mph 93% 0.00 in
00:28 25.3 °F 23.6 °F 29.74 in NNW 5.8 mph 5.8 mph 93% 0.00 in
00:33 25.4 °F 23.7 °F 29.74 in NNW 11.5 mph 11.5 mph 93% 0.00 in
00:38 25.4 °F 23.7 °F 29.74 in NNW 4.6 mph 4.6 mph 93% 0.00 in
00:43 25.4 °F 23.7 °F 29.74 in NNW 4.6 mph 4.6 mph 93% 0.00 in
00:48 25.5 °F 23.8 °F 29.74 in NNW 5.8 mph 5.8 mph 93% 0.00 in
00:53 25.5 °F 23.8 °F 29.74 in North 6.9 mph 6.9 mph 93% 0.00 in
00:58 25.6 °F 23.6 °F 29.74 in NNW 3.5 mph 3.5 mph 92% 0.00 in
01:03 25.6 °F 23.6 °F 29.74 in North 4.6 mph 4.6 mph 92% 0.00 in
01:08 25.6 °F 23.6 °F 29.74 in North 4.0 mph 4.0 mph 92% 0.00 in
01:13 25.7 °F 23.7 °F 29.74 in NNW 4.6 mph 4.6 mph 92% 0.00 in
01:18 25.7 °F 23.4 °F 29.74 in NW 5.8 mph 5.8 mph 91% 0.00 in
01:23 25.8 °F 23.5 °F 29.74 in NNW 5.8 mph 5.8 mph 91% 0.00 in
01:28 25.8 °F 23.5 °F 29.74 in NNW 4.6 mph 4.6 mph 91% 0.00 in
01:33 25.8 °F 23.5 °F 29.74 in NW 4.6 mph 4.6 mph 91% 0.00 in
01:38 25.8 °F 23.3 °F 29.73 in NNW 4.6 mph 4.6 mph 90% 0.00 in
01:43 25.8 °F 23.3 °F 29.73 in NNW 3.5 mph 3.5 mph 90% 0.00 in
01:48 25.9 °F 23.4 °F 29.74 in NW 6.9 mph 6.9 mph 90% 0.00 in
01:53 25.9 °F 23.4 °F 29.74 in NW 3.5 mph 3.5 mph 90% 0.00 in
01:58 26.0 °F 23.5 °F 29.74 in NNW 6.0 mph 6.0 mph 90% 0.00 in
02:03 26.0 °F 23.5 °F 29.74 in NW 4.6 mph 4.6 mph 90% 0.00 in
02:08 26.0 °F 23.5 °F 29.74 in WNW 3.5 mph 3.5 mph 90% 0.00 in
02:13 26.1 °F 23.6 °F 29.74 in NW 4.6 mph 4.6 mph 90% 0.00 in
02:18 26.1 °F 23.6 °F 29.74 in NNW 5.0 mph 5.0 mph 90% 0.00 in
02:23 26.1 °F 23.6 °F 29.74 in NW 4.6 mph 4.6 mph 90% 0.00 in
02:28 26.1 °F 23.6 °F 29.74 in North 5.8 mph 5.8 mph 90% 0.00 in
02:33 26.1 °F 23.6 °F 29.74 in NNW 4.0 mph 4.0 mph 90% 0.00 in
02:38 26.1 °F 23.6 °F 29.74 in NW 3.5 mph 3.5 mph 90% 0.00 in
02:43 26.1 °F 23.6 °F 29.74 in North 3.5 mph 3.5 mph 90% 0.00 in
02:48 26.1 °F 23.6 °F 29.74 in NNW 3.0 mph 3.0 mph 90% 0.00 in
02:53 26.0 °F 23.5 °F 29.74 in North 4.6 mph 4.6 mph 90% 0.00 in
02:58 26.0 °F 23.5 °F 29.74 in NNE 3.5 mph   90% 0.00 in
03:03 26.0 °F 23.5 °F 29.74 in North 9.2 mph 9.2 mph 90% 0.00 in
03:08 26.1 °F 23.3 °F 29.74 in North 5.8 mph 5.8 mph 89% 0.00 in
03:13 26.1 °F 23.3 °F 29.74 in NNW 1.2 mph 1.2 mph 89% 0.00 in
03:18 26.2 °F 23.4 °F 29.74 in NNW 5.0 mph 5.0 mph 89% 0.00 in
03:23 26.2 °F 23.1 °F 29.74 in Calm     88% 0.00 in
03:28 26.2 °F 23.1 °F 29.73 in NE 5.8 mph 5.8 mph 88% 0.00 in
03:33 26.2 °F 23.1 °F 29.73 in North 2.3 mph 2.3 mph 88% 0.00 in
03:38 26.3 °F 23.2 °F 29.73 in NW 2.3 mph 2.3 mph 88% 0.00 in
03:43 26.3 °F 23.2 °F 29.74 in NW 3.5 mph 3.5 mph 88% 0.00 in
03:48 26.4 °F 23.3 °F 29.73 in NW 1.2 mph 1.2 mph 88% 0.00 in
03:53 26.4 °F 23.3 °F 29.73 in North 5.0 mph 5.0 mph 88% 0.00 in
03:58 26.4 °F 23.3 °F 29.73 in NNW 3.5 mph 3.5 mph 88% 0.00 in
04:03 26.5 °F 23.2 °F 29.73 in NW 2.3 mph 2.3 mph 87% 0.00 in
04:08 26.5 °F 23.4 °F 29.73 in NW 1.0 mph 1.0 mph 88% 0.00 in
04:13 26.5 °F 23.2 °F 29.73 in NNW 4.6 mph 4.6 mph 87% 0.00 in
04:18 26.5 °F 23.2 °F 29.73 in NNW 1.2 mph 1.2 mph 87% 0.00 in
04:23 26.5 °F 23.2 °F 29.73 in NNW 4.6 mph 4.6 mph 87% 0.00 in
04:28 26.6 °F 23.3 °F 29.73 in NW 6.9 mph 6.9 mph 87% 0.00 in
04:33 26.6 °F 23.3 °F 29.73 in NW 4.6 mph 4.6 mph 87% 0.00 in
04:38 26.6 °F 23.3 °F 29.74 in NW 6.9 mph 6.9 mph 87% 0.00 in
04:43 26.6 °F 23.3 °F 29.74 in NW 4.0 mph 4.0 mph 87% 0.00 in
04:49 26.6 °F 23.5 °F 29.73 in NW 4.6 mph 4.6 mph 88% 0.00 in
04:54 26.5 °F 23.4 °F 29.73 in WSW 4.6 mph 4.6 mph 88% 0.00 in
04:59 26.5 °F 23.4 °F 29.73 in WNW 5.8 mph 5.8 mph 88% 0.00 in
05:04 26.4 °F 23.3 °F 29.74 in NW 5.8 mph 5.8 mph 88% 0.00 in
05:09 26.4 °F 23.3 °F 29.74 in NNW 5.8 mph 5.8 mph 88% 0.00 in
05:14 26.3 °F 23.2 °F 29.74 in NW 4.6 mph 4.6 mph 88% 0.00 in
05:19 26.3 °F 23.2 °F 29.74 in NNW 10.4 mph 10.4 mph 88% 0.00 in
05:24 26.3 °F 23.2 °F 29.74 in NW 7.0 mph 7.0 mph 88% 0.00 in
05:29 26.3 °F 23.2 °F 29.74 in NNW 8.1 mph 8.1 mph 88% 0.00 in
05:34 26.3 °F 23.2 °F 29.74 in NW 6.9 mph 6.9 mph 88% 0.00 in
05:39 26.3 °F 23.2 °F 29.74 in NW 6.9 mph 6.9 mph 88% 0.00 in
05:44 26.3 °F 23.2 °F 29.75 in NNW 6.9 mph 6.9 mph 88% 0.00 in
05:49 26.4 °F 23.3 °F 29.75 in NW 4.6 mph 4.6 mph 88% 0.00 in
05:54 26.4 °F 23.3 °F 29.75 in WNW 6.0 mph 6.0 mph 88% 0.00 in
05:59 26.4 °F 23.3 °F 29.75 in WNW 4.6 mph 4.6 mph 88% 0.00 in
06:04 26.5 °F 23.4 °F 29.75 in NNW 10.4 mph 10.4 mph 88% 0.00 in
06:09 26.5 °F 23.4 °F 29.75 in NNW 5.8 mph 5.8 mph 88% 0.00 in
06:14 26.5 °F 23.4 °F 29.75 in NW 5.8 mph 5.8 mph 88% 0.00 in
06:19 26.5 °F 23.4 °F 29.76 in NW 6.9 mph 6.9 mph 88% 0.00 in
06:24 26.5 °F 23.4 °F 29.76 in NNW 8.1 mph 8.1 mph 88% 0.00 in
06:29 26.5 °F 23.4 °F 29.76 in NW 2.3 mph   88% 0.00 in
06:34 26.5 °F 23.4 °F 29.76 in NW 5.0 mph 5.0 mph 88% 0.00 in
06:39 26.4 °F 23.1 °F 29.76 in West 2.3 mph 2.3 mph 87% 0.00 in
06:44 26.4 °F 23.1 °F 29.75 in NNW 2.3 mph 2.3 mph 87% 0.00 in
06:49 26.3 °F 23.0 °F 29.75 in NW 1.2 mph 1.2 mph 87% 0.00 in
06:54 26.3 °F 23.0 °F 29.76 in West 4.6 mph 4.6 mph 87% 0.00 in
06:59 26.3 °F 23.2 °F 29.76 in WNW 3.5 mph 3.5 mph 88% 0.00 in
07:04 26.3 °F 23.2 °F 29.75 in NW 5.8 mph 5.8 mph 88% 0.00 in
07:09 26.2 °F 22.9 °F 29.75 in NW 2.3 mph 2.3 mph 87% 0.00 in
07:14 26.2 °F 22.9 °F 29.75 in NNW 5.8 mph 5.8 mph 87% 0.00 in
07:19 26.2 °F 22.9 °F 29.75 in South 7.0 mph 7.0 mph 87% 0.00 in
07:24 26.1 °F 22.5 °F 29.75 in NW 4.6 mph 4.6 mph 86% 0.00 in
07:29 26.1 °F 22.5 °F 29.75 in NE 4.6 mph 4.6 mph 86% 0.00 in
07:34 26.1 °F 22.5 °F 29.76 in NNW 8.1 mph 8.1 mph 86% 0.00 in
07:39 26.1 °F 22.5 °F 29.76 in NE 4.6 mph 4.6 mph 86% 0.00 in
07:44 26.2 °F 22.6 °F 29.76 in SE 4.6 mph 4.6 mph 86% 0.00 in
07:49 26.2 °F 22.6 °F 29.76 in NNW 5.8 mph 5.8 mph 86% 0.00 in
07:54 26.2 °F 22.3 °F 29.76 in South 3.5 mph 3.5 mph 85% 0.00 in
07:59 26.3 °F 22.4 °F 29.76 in NW 4.6 mph 4.6 mph 85% 0.00 in
08:04 26.3 °F 22.1 °F 29.76 in NW 4.6 mph 4.6 mph 84% 0.00 in
08:09 26.4 °F 22.2 °F 29.77 in WNW 4.6 mph 4.6 mph 84% 0.00 in
08:14 26.5 °F 22.0 °F 29.77 in South 1.2 mph 1.2 mph 83% 0.00 in
08:19 26.6 °F 22.1 °F 29.77 in NW 10.4 mph 10.4 mph 83% 0.00 in
08:24 26.7 °F 22.2 °F 29.77 in WNW 9.2 mph 9.2 mph 83% 0.00 in
08:29 26.8 °F 22.0 °F 29.77 in NW 2.0 mph   82% 0.00 in
08:34 26.9 °F 22.1 °F 29.77 in North 9.2 mph 9.2 mph 82% 0.00 in
08:39 27.0 °F 22.5 °F 29.77 in NW 6.9 mph 6.9 mph 83% 0.00 in
08:44 27.0 °F 22.2 °F 29.77 in NW 6.9 mph 6.9 mph 82% 0.00 in
08:49 27.1 °F 22.3 °F 29.78 in NW 5.8 mph 5.8 mph 82% 0.00 in
08:54 27.1 °F 22.0 °F 29.77 in NW 5.8 mph 5.8 mph 81% 0.00 in
08:59 27.2 °F 22.1 °F 29.77 in WNW 4.6 mph 4.6 mph 81% 0.00 in
09:04 27.2 °F 22.1 °F 29.78 in NW 3.5 mph 3.5 mph 81% 0.00 in
09:09 27.2 °F 22.4 °F 29.78 in WNW 3.5 mph 3.5 mph 82% 0.00 in
09:14 27.4 °F 22.3 °F 29.78 in NNW 2.3 mph 2.3 mph 81% 0.00 in
09:19 27.4 °F 22.0 °F 29.78 in Calm     80% 0.00 in
09:24 27.4 °F 22.0 °F 29.78 in Calm     80% 0.00 in
09:29 27.5 °F 22.1 °F 29.78 in NNW 8.1 mph 8.1 mph 80% 0.00 in
09:34 27.2 °F 21.8 °F 29.78 in NW 4.6 mph 4.6 mph 80% 0.00 in
09:39 27.2 °F 21.8 °F 29.78 in NW 4.6 mph 4.6 mph 80% 0.00 in
09:44 27.2 °F 21.8 °F 29.79 in North 4.6 mph 4.6 mph 80% 0.00 in
09:49 27.2 °F 21.8 °F 29.79 in SW 4.6 mph 4.6 mph 80% 0.00 in
09:54 27.2 °F 21.8 °F 29.79 in WNW 3.5 mph 3.5 mph 80% 0.00 in
09:59 27.4 °F 22.0 °F 29.79 in WNW 1.2 mph 1.2 mph 80% 0.00 in
10:04 27.6 °F 22.2 °F 29.79 in NNW 13.8 mph 13.8 mph 80% 0.00 in
10:09 27.7 °F 22.0 °F 29.79 in NW 7.0 mph 7.0 mph 79% 0.00 in
10:14 27.8 °F 22.1 °F 29.79 in NW 5.8 mph 5.8 mph 79% 0.00 in
10:19 27.8 °F 21.8 °F 29.79 in West 6.9 mph 6.9 mph 78% 0.00 in
10:24 27.8 °F 21.8 °F 29.80 in NNW 8.0 mph 8.0 mph 78% 0.00 in
10:29 27.8 °F 21.8 °F 29.80 in NW 6.9 mph 6.9 mph 78% 0.00 in
10:34 27.9 °F 22.2 °F 29.80 in NW 8.1 mph 8.1 mph 79% 0.00 in
10:39 28.0 °F 21.7 °F 29.80 in NNW 11.5 mph 11.5 mph 77% 0.00 in
10:44 28.0 °F 22.0 °F 29.80 in NW 9.2 mph 9.2 mph 78% 0.00 in
10:49 28.1 °F 21.5 °F 29.80 in NNW 10.4 mph 10.4 mph 76% 0.00 in
10:54 28.2 °F 21.6 °F 29.80 in NNW 10.0 mph 10.0 mph 76% 0.00 in
10:59 28.3 °F 21.4 °F 29.80 in NNW 11.5 mph 11.5 mph 75% 0.00 in
11:04 28.7 °F 22.1 °F 29.80 in NW 8.1 mph 8.1 mph 76% 0.00 in
11:09 29.0 °F 22.1 °F 29.80 in NW 4.0 mph 4.0 mph 75% 0.00 in
11:14 29.2 °F 22.3 °F 29.80 in NNW 3.5 mph 3.5 mph 75% 0.00 in
11:19 29.4 °F 22.1 °F 29.80 in NW 6.9 mph 6.9 mph 74% 0.00 in
11:24 29.6 °F 22.3 °F 29.80 in NW 8.1 mph 8.1 mph 74% 0.00 in
11:29 29.5 °F 21.9 °F 29.80 in NW 9.2 mph 9.2 mph 73% 0.00 in
11:34 29.6 °F 22.0 °F 29.80 in North 6.0 mph 6.0 mph 73% 0.00 in
11:39 29.9 °F 22.3 °F 29.80 in North 3.5 mph 3.5 mph 73% 0.00 in
11:44 30.1 °F 22.5 °F 29.80 in NNE 8.1 mph 8.1 mph 73% 0.00 in
11:49 30.2 °F 22.3 °F 29.79 in NNW 11.5 mph 11.5 mph 72% 0.00 in
11:54 30.0 °F 22.1 °F 29.79 in NNW 8.1 mph 8.1 mph 72% 0.00 in
11:59 30.1 °F 22.2 °F 29.79 in NNW 11.5 mph 11.5 mph 72% 0.00 in
12:04 30.0 °F 22.4 °F 29.80 in North 4.6 mph 4.6 mph 73% 0.00 in
12:09 30.0 °F 22.1 °F 29.79 in NNW 4.6 mph 4.6 mph 72% 0.01 in
12:14 30.1 °F 22.2 °F 29.79 in NW 6.9 mph 6.9 mph 72% 0.01 in
12:19 30.1 °F 22.2 °F 29.79 in NW 5.8 mph 5.8 mph 72% 0.01 in
12:24 30.0 °F 22.1 °F 29.79 in NW 8.1 mph 8.1 mph 72% 0.02 in
12:29 30.0 °F 21.7 °F 29.79 in West 6.9 mph 6.9 mph 71% 0.02 in
12:34 30.0 °F 21.7 °F 29.78 in NNW 8.1 mph 8.1 mph 71% 0.02 in
12:39 30.1 °F 21.5 °F 29.78 in NNW 5.0 mph 5.0 mph 70% 0.02 in
12:44 30.2 °F 21.6 °F 29.78 in West 6.9 mph 6.9 mph 70% 0.02 in
12:49 30.4 °F 21.4 °F 29.78 in NW 8.1 mph 8.1 mph 69% 0.03 in
12:54 30.5 °F 21.5 °F 29.78 in NW 7.0 mph 7.0 mph 69% 0.03 in
12:59 30.3 °F 21.0 °F 29.77 in NW 12.7 mph 12.7 mph 68% 0.04 in
13:04 30.2 °F 20.9 °F 29.77 in North 9.2 mph 9.2 mph 68% 0.04 in
13:09 30.5 °F 21.2 °F 29.77 in NNE 9.2 mph 9.2 mph 68% 0.03 in
13:14 31.0 °F 22.0 °F 29.77 in NNW 6.9 mph 6.9 mph 69% 0.04 in
13:19 31.6 °F 21.9 °F 29.77 in NNE 5.8 mph 5.8 mph 67% 0.04 in
13:24 32.0 °F 21.6 °F 29.77 in NNW 11.5 mph 11.5 mph 65% 0.04 in
13:29 31.9 °F 21.8 °F 29.77 in North 7.0 mph 7.0 mph 66% 0.04 in
13:34 32.2 °F 21.4 °F 29.77 in NW 8.1 mph 8.1 mph 64% 0.04 in
13:39 32.3 °F 21.5 °F 29.77 in NNW 9.2 mph 9.2 mph 64% 0.05 in
13:44 32.7 °F 21.9 °F 29.77 in NW 6.9 mph 6.9 mph 64% 0.06 in
13:49 32.8 °F 22.0 °F 29.77 in NW 6.9 mph 6.9 mph 64% 0.06 in
Mechanicsburg,PA USA
Compliments of Weather Underground